Time;durP1;ratioP1;P1;durP2;ratioP2;P2;SDS_P1;SDS_P2;PMS_P1;PMS_P2;Temp;Humidity;BMP_temperature;BMP_pressure;BME280_temperature;BME280_humidity;BME280_pressure;Samples;Min_cycle;Max_cycle;Signal;HPM_P1;HPM_P2
2023/03/26 00:00:53;;;;;;;37.50;5.53;;;;;;;7.74;100.00;100763.38;5210119;28;20063;-79
2023/03/26 00:03:23;;;;;;;39.53;5.78;;;;;;;7.81;100.00;100761.78;5210470;28;20033;-79
2023/03/26 00:06:14;;;;;;;28.98;5.00;;;;;;;7.89;100.00;100766.38;5210099;28;20055;-79
2023/03/26 00:08:45;;;;;;;32.90;4.57;;;;;;;7.92;100.00;100758.88;5209516;28;20040;-79
2023/03/26 00:11:17;;;;;;;29.60;3.85;;;;;;;7.94;100.00;100753.41;5209300;28;20030;-79
2023/03/26 00:13:48;;;;;;;30.77;4.18;;;;;;;7.99;100.00;100748.44;5209292;28;20025;-79
2023/03/26 00:16:19;;;;;;;29.02;4.40;;;;;;;8.02;100.00;100745.47;5209185;28;20048;-79
2023/03/26 00:18:50;;;;;;;31.67;4.53;;;;;;;8.03;100.00;100736.44;5209516;28;20030;-79
2023/03/26 00:21:26;;;;;;;39.85;4.53;;;;;;;8.03;100.00;100734.66;5200132;28;20025;-79
2023/03/26 00:24:03;;;;;;;30.08;4.38;;;;;;;8.04;100.00;100725.63;5204765;28;20494;-79
2023/03/26 00:26:36;;;;;;;37.10;4.45;;;;;;;8.06;100.00;100725.47;5208628;28;20499;-79
2023/03/26 00:29:08;;;;;;;22.02;3.08;;;;;;;8.07;100.00;100724.47;5208744;28;20027;-79
2023/03/26 00:31:39;;;;;;;29.42;4.10;;;;;;;8.09;100.00;100716.31;5207647;28;20017;-79
2023/03/26 00:34:10;;;;;;;27.85;4.63;;;;;;;8.11;100.00;100714.31;5209522;28;20051;-79
2023/03/26 00:36:41;;;;;;;25.10;3.95;;;;;;;8.10;100.00;100715.31;5208656;28;20104;-79
2023/03/26 00:39:13;;;;;;;40.13;5.60;;;;;;;8.11;100.00;100706.31;5209062;28;20021;-79
2023/03/26 00:41:43;;;;;;;28.90;4.07;;;;;;;8.11;100.00;100700.97;5209214;28;20036;-79
2023/03/26 00:44:14;;;;;;;19.02;3.30;;;;;;;8.12;100.00;100706.13;5208894;28;20642;-79
2023/03/26 00:46:44;;;;;;;21.15;4.43;;;;;;;8.17;100.00;100709.19;5206422;28;20401;-79
2023/03/26 00:49:15;;;;;;;23.38;4.00;;;;;;;8.21;100.00;100693.69;5207842;28;20017;-79
2023/03/26 00:51:45;;;;;;;22.17;4.00;;;;;;;8.32;100.00;100702.31;5223449;28;20026;-79
2023/03/26 00:54:16;;;;;;;29.65;3.83;;;;;;;8.43;100.00;100709.25;5209252;28;20155;-79
2023/03/26 00:56:46;;;;;;;21.95;3.33;;;;;;;8.51;100.00;100703.97;5207576;28;20175;-79
2023/03/26 00:59:17;;;;;;;24.35;3.90;;;;;;;8.47;100.00;100710.63;5208674;28;20029;-79
2023/03/26 01:01:50;;;;;;;19.25;3.10;;;;;;;8.47;100.00;100705.28;5209566;28;20036;-79
2023/03/26 01:04:25;;;;;;;22.02;3.53;;;;;;;8.43;100.00;100698.56;5208949;28;20022;-79
2023/03/26 01:06:59;;;;;;;21.08;3.10;;;;;;;8.38;100.00;100692.00;5208634;28;20056;-79
2023/03/26 01:09:34;;;;;;;27.17;4.10;;;;;;;8.32;100.00;100693.44;5207529;28;20017;-79
2023/03/26 01:12:07;;;;;;;19.58;3.45;;;;;;;8.27;100.00;100682.38;5204769;28;20458;-79
2023/03/26 01:14:38;;;;;;;28.83;4.07;;;;;;;8.23;100.00;100673.00;5206183;28;20301;-79
2023/03/26 01:17:11;;;;;;;22.40;3.63;;;;;;;8.19;100.00;100680.50;5207185;28;20025;-79
2023/03/26 01:19:46;;;;;;;26.90;3.78;;;;;;;8.17;100.00;100678.97;5222717;28;20053;-79
2023/03/26 01:22:22;;;;;;;21.92;3.58;;;;;;;8.13;100.00;100672.25;5193816;28;20061;-79
2023/03/26 01:24:55;;;;;;;30.27;4.55;;;;;;;8.09;100.00;100660.22;5200861;28;20037;-79
2023/03/26 01:27:31;;;;;;;26.20;3.33;;;;;;;8.03;100.00;100654.50;5204224;28;20025;-79
2023/03/26 01:30:11;;;;;;;27.00;4.43;;;;;;;8.02;100.00;100658.13;5206596;28;20108;-79
2023/03/26 01:33:05;;;;;;;30.63;3.85;;;;;;;7.99;100.00;100647.78;5206909;28;20032;-80
2023/03/26 01:35:57;;;;;;;25.48;3.75;;;;;;;7.97;100.00;100648.91;5206874;28;20123;-79
2023/03/26 01:39:03;;;;;;;27.13;3.35;;;;;;;7.94;100.00;100634.03;5206174;28;20021;-79
2023/03/26 01:41:52;;;;;;;25.90;3.75;;;;;;;7.92;100.00;100638.69;5206359;28;20389;-79
2023/03/26 01:44:47;;;;;;;17.45;3.60;;;;;;;7.92;100.00;100632.50;5206398;28;20056;-79
2023/03/26 01:47:20;;;;;;;22.45;3.00;;;;;;;7.91;100.00;100631.66;5206725;28;20035;-79
2023/03/26 01:49:50;;;;;;;26.92;3.95;;;;;;;7.87;100.00;100624.94;5206289;28;20025;-80
2023/03/26 01:52:24;;;;;;;22.70;4.38;;;;;;;7.84;100.00;100616.44;5207117;28;20048;-80
2023/03/26 01:54:56;;;;;;;21.80;3.65;;;;;;;7.79;100.00;100601.69;5206920;28;20021;-80
2023/03/26 01:57:27;;;;;;;24.75;3.30;;;;;;;7.78;100.00;100596.50;5206470;28;20104;-80
2023/03/26 02:00:09;;;;;;;22.58;4.35;;;;;;;7.74;100.00;100589.81;5206804;28;20021;-80
2023/03/26 02:03:03;;;;;;;20.80;3.47;;;;;;;7.70;100.00;100591.09;5207277;28;20029;-80
2023/03/26 02:05:36;;;;;;;15.20;2.60;;;;;;;7.64;100.00;100591.72;5206644;28;20090;-80
2023/03/26 02:08:34;;;;;;;14.02;2.65;;;;;;;7.58;100.00;100584.31;5206530;28;20029;-80
2023/03/26 02:11:10;;;;;;;17.42;2.47;;;;;;;7.55;100.00;100574.78;5206010;28;20112;-80
2023/03/26 02:13:43;;;;;;;25.10;3.33;;;;;;;7.53;100.00;100576.78;5217377;28;20086;-80
2023/03/26 02:16:16;;;;;;;25.40;3.55;;;;;;;7.50;100.00;100569.06;5206366;28;20025;-80
2023/03/26 02:18:50;;;;;;;22.58;3.72;;;;;;;7.51;100.00;100565.41;5206184;28;20394;-80
2023/03/26 02:21:24;;;;;;;21.73;3.83;;;;;;;7.52;100.00;100570.56;5198420;28;20030;-80
2023/03/26 02:24:01;;;;;;;26.80;4.57;;;;;;;7.50;100.00;100564.56;5202366;28;20018;-80
2023/03/26 02:26:34;;;;;;;19.33;3.53;;;;;;;7.47;100.00;100554.19;5205799;28;20114;-80
2023/03/26 02:29:05;;;;;;;22.75;3.10;;;;;;;7.49;100.00;100551.38;5206978;28;20017;-80
2023/03/26 02:31:35;;;;;;;19.02;4.03;;;;;;;7.50;100.00;100537.88;5206465;28;20029;-80
2023/03/26 02:34:06;;;;;;;26.05;4.47;;;;;;;7.50;100.00;100529.84;5206462;28;20494;-80
2023/03/26 02:36:37;;;;;;;20.20;4.10;;;;;;;7.53;100.00;100536.75;5205841;28;20030;-80
2023/03/26 02:39:09;;;;;;;15.82;3.40;;;;;;;7.53;100.00;100526.06;5206776;28;20017;-80
2023/03/26 02:41:40;;;;;;;20.30;3.63;;;;;;;7.50;100.00;100523.69;5206078;28;20036;-80
2023/03/26 02:44:10;;;;;;;24.05;4.50;;;;;;;7.48;100.00;100523.84;5205675;28;20029;-80
2023/03/26 02:46:41;;;;;;;15.52;2.92;;;;;;;7.48;100.00;100517.66;5205504;28;20504;-80
2023/03/26 02:49:12;;;;;;;22.25;3.55;;;;;;;7.44;100.00;100514.47;5206956;28;20089;-80
2023/03/26 02:51:43;;;;;;;18.45;2.88;;;;;;;7.43;100.00;100504.78;5206230;28;20025;-80
2023/03/26 02:54:15;;;;;;;31.42;3.20;;;;;;;7.40;100.00;100491.75;5208234;28;20032;-80
2023/03/26 02:56:46;;;;;;;27.38;3.00;;;;;;;7.37;100.00;100500.03;5209420;28;20079;-80
2023/03/26 02:59:16;;;;;;;13.23;2.78;;;;;;;7.34;100.00;100492.38;5210176;28;20021;-80
2023/03/26 03:01:47;;;;;;;23.90;3.17;;;;;;;7.31;100.00;100490.00;5209958;28;20049;-80
2023/03/26 03:04:18;;;;;;;23.42;4.18;;;;;;;7.28;100.00;100474.31;5210484;28;20021;-79
2023/03/26 03:06:51;;;;;;;22.08;4.10;;;;;;;7.27;100.00;100475.28;5210120;28;20053;-80
2023/03/26 03:09:24;;;;;;;42.80;5.80;;;;;;;7.26;100.00;100470.94;5210062;28;20044;-79
2023/03/26 03:11:55;;;;;;;23.80;3.40;;;;;;;7.25;100.00;100466.59;5208956;28;20017;-79
2023/03/26 03:14:25;;;;;;;22.65;3.20;;;;;;;7.23;100.00;100456.09;5207198;28;20033;-80
2023/03/26 03:16:56;;;;;;;23.67;3.30;;;;;;;7.32;100.00;100448.97;5209673;28;20014;-79
2023/03/26 03:19:27;;;;;;;17.73;3.67;;;;;;;7.34;100.00;100438.16;5209831;28;20044;-80
2023/03/26 03:21:57;;;;;;;22.77;4.15;;;;;;;7.34;100.00;100431.00;5196197;28;20371;-79
2023/03/26 03:24:28;;;;;;;30.60;3.45;;;;;;;7.35;100.00;100419.31;5209174;28;20079;-79
2023/03/26 03:26:59;;;;;;;30.13;3.78;;;;;;;7.35;100.00;100413.97;5209078;28;20252;-80
2023/03/26 03:29:29;;;;;;;22.45;3.55;;;;;;;7.36;100.00;100410.31;5209748;28;20021;-79
2023/03/26 03:32:00;;;;;;;24.08;3.20;;;;;;;7.35;100.00;100405.97;5212209;28;20036;-80
2023/03/26 03:34:30;;;;;;;16.38;3.20;;;;;;;7.37;100.00;100401.31;5211849;28;20143;-79
2023/03/26 03:37:01;;;;;;;17.73;3.30;;;;;;;7.38;100.00;100394.13;5210280;28;20402;-79
2023/03/26 03:39:31;;;;;;;23.80;5.90;;;;;;;7.38;100.00;100397.66;5211371;28;20030;-79
2023/03/26 03:42:02;;;;;;;15.80;3.22;;;;;;;7.37;100.00;100398.63;5207080;28;20474;-79
2023/03/26 03:44:32;;;;;;;20.40;3.30;;;;;;;7.37;100.00;100387.13;5206609;28;20037;-79
2023/03/26 03:47:03;;;;;;;17.23;3.65;;;;;;;7.36;100.00;100374.78;5205811;28;20673;-79
2023/03/26 03:49:35;;;;;;;21.08;4.03;;;;;;;7.34;100.00;100363.44;5206137;28;20410;-79
2023/03/26 03:52:06;;;;;;;23.08;3.90;;;;;;;7.32;100.00;100366.25;5206379;28;20029;-79
2023/03/26 03:54:36;;;;;;;27.23;4.43;;;;;;;7.30;100.00;100354.91;5206835;28;20035;-80
2023/03/26 03:57:07;;;;;;;18.65;3.80;;;;;;;7.26;100.00;100350.88;5206256;28;20022;-79
2023/03/26 03:59:38;;;;;;;24.35;4.38;;;;;;;7.24;100.00;100345.69;5206191;28;20025;-79
2023/03/26 04:02:08;;;;;;;18.70;3.13;;;;;;;7.23;100.00;100332.53;5206343;28;20083;-80
2023/03/26 04:04:39;;;;;;;18.17;3.05;;;;;;;7.22;100.00;100328.16;5206291;28;20073;-79
2023/03/26 04:07:09;;;;;;;27.80;4.25;;;;;;;7.19;100.00;100325.81;5206414;28;20482;-80
2023/03/26 04:09:40;;;;;;;26.65;3.75;;;;;;;7.16;100.00;100316.28;5206345;28;20445;-79
2023/03/26 04:12:10;;;;;;;15.30;3.47;;;;;;;7.15;100.00;100316.47;5203627;28;20266;-80
2023/03/26 04:14:41;;;;;;;19.38;3.78;;;;;;;7.13;100.00;100308.63;5206405;28;20033;-80
2023/03/26 04:17:14;;;;;;;26.63;3.40;;;;;;;7.10;100.00;100308.09;5206751;28;20025;-80
2023/03/26 04:19:45;;;;;;;19.13;5.20;;;;;;;7.05;100.00;100303.22;5207172;28;20035;-79
2023/03/26 04:22:17;;;;;;;23.65;4.85;;;;;;;7.05;100.00;100297.06;5206791;28;20117;-80
2023/03/26 04:24:49;;;;;;;23.15;3.65;;;;;;;7.02;100.00;100292.84;5207017;28;20104;-80
2023/03/26 04:27:26;;;;;;;25.65;3.80;;;;;;;7.02;100.00;100282.19;5206604;28;20037;-80
2023/03/26 04:30:00;;;;;;;27.48;4.32;;;;;;;7.02;100.00;100284.84;5205372;28;20100;-80
2023/03/26 04:35:18;;;;;;;25.83;4.10;;;;;;;7.02;100.00;100271.50;5205145;28;20064;-79
2023/03/26 04:37:48;;;;;;;31.95;3.97;;;;;;;7.05;100.00;100273.03;5205367;28;20497;-80
2023/03/26 04:40:20;;;;;;;17.23;3.45;;;;;;;7.04;100.00;100268.72;5205407;28;20057;-80
2023/03/26 04:42:53;;;;;;;22.77;3.40;;;;;;;7.06;100.00;100256.88;5205902;28;20575;-80
2023/03/26 04:45:23;;;;;;;21.60;3.92;;;;;;;7.05;100.00;100254.38;5205527;28;20025;-80
2023/03/26 04:47:54;;;;;;;16.38;2.95;;;;;;;7.04;100.00;100248.22;5204376;28;20048;-76
2023/03/26 04:50:25;;;;;;;25.13;4.00;;;;;;;7.04;100.00;100244.72;5204872;28;20516;-76
2023/03/26 04:52:57;;;;;;;33.33;4.57;;;;;;;7.07;100.00;100236.38;5204416;28;20099;-76
2023/03/26 04:55:45;;;;;;;25.20;3.35;;;;;;;7.06;100.00;100232.88;5204570;28;20028;-75
2023/03/26 04:58:16;;;;;;;22.27;4.22;;;;;;;7.08;100.00;100230.03;5203507;28;20079;-75
2023/03/26 05:00:48;;;;;;;18.17;5.03;;;;;;;7.09;100.00;100231.72;5204345;28;20692;-75
2023/03/26 05:03:19;;;;;;;17.30;4.15;;;;;;;7.08;100.00;100233.56;5204627;28;20029;-75
2023/03/26 05:05:50;;;;;;;29.33;5.72;;;;;;;7.08;100.00;100222.03;5204157;28;20413;-75
2023/03/26 05:08:20;;;;;;;23.42;3.50;;;;;;;7.08;100.00;100224.69;5203879;28;20029;-75
2023/03/26 05:10:51;;;;;;;17.25;3.20;;;;;;;7.07;100.00;100220.38;5203751;28;20056;-76
2023/03/26 05:13:23;;;;;;;24.23;3.60;;;;;;;7.06;100.00;100211.53;5220003;28;20107;-76
2023/03/26 05:15:54;;;;;;;16.75;3.38;;;;;;;7.07;100.00;100209.69;5204220;28;20389;-76
2023/03/26 05:18:24;;;;;;;27.08;3.90;;;;;;;7.08;100.00;100209.56;5203312;28;20398;-76
2023/03/26 05:20:56;;;;;;;22.70;3.47;;;;;;;7.10;100.00;100204.88;5198764;28;20029;-76
2023/03/26 05:23:26;;;;;;;23.27;3.42;;;;;;;7.12;100.00;100204.72;5195573;28;20112;-76
2023/03/26 05:25:57;;;;;;;31.27;3.60;;;;;;;7.13;100.00;100203.72;5203823;28;20108;-76
2023/03/26 05:28:27;;;;;;;20.85;3.78;;;;;;;7.16;100.00;100198.06;5203359;28;20032;-76
2023/03/26 05:30:59;;;;;;;15.48;3.70;;;;;;;7.20;100.00;100194.09;5203662;28;20021;-76
2023/03/26 05:33:30;;;;;;;17.20;3.38;;;;;;;7.25;100.00;100191.78;5203543;28;20029;-76
2023/03/26 05:36:03;;;;;;;26.67;3.38;;;;;;;7.27;100.00;100195.13;5203723;28;20054;-76
2023/03/26 05:38:34;;;;;;;14.65;3.72;;;;;;;7.29;100.00;100185.13;5203233;28;20131;-76
2023/03/26 05:41:07;;;;;;;26.27;3.50;;;;;;;7.33;100.00;100180.28;5202392;28;20030;-76
2023/03/26 05:43:38;;;;;;;28.30;4.18;;;;;;;7.34;100.00;100180.16;5203566;28;20143;-76
2023/03/26 05:46:08;;;;;;;24.98;3.70;;;;;;;7.34;100.00;100177.47;5202959;28;20048;-76
2023/03/26 05:48:39;;;;;;;24.00;3.55;;;;;;;7.36;100.00;100171.97;5203476;28;20033;-77
2023/03/26 05:51:11;;;;;;;29.58;3.30;;;;;;;7.37;100.00;100173.63;5195401;28;20573;-76
2023/03/26 05:53:41;;;;;;;20.85;3.40;;;;;;;7.37;100.00;100174.47;5200963;28;20021;-76
2023/03/26 05:56:12;;;;;;;13.07;2.80;;;;;;;7.37;100.00;100168.31;5201830;28;20032;-76
2023/03/26 05:58:42;;;;;;;20.13;3.72;;;;;;;7.36;100.00;100171.97;5201159;28;20550;-76
2023/03/26 06:01:25;;;;;;;19.10;3.95;;;;;;;7.33;100.00;100161.63;5201860;28;20025;-76
2023/03/26 06:04:16;;;;;;;18.40;3.83;;;;;;;7.30;100.00;100157.47;5203459;28;20025;-76
2023/03/26 06:06:46;;;;;;;23.85;3.53;;;;;;;7.31;100.00;100158.28;5200968;28;20469;-75
2023/03/26 06:09:17;;;;;;;18.70;3.60;;;;;;;7.30;100.00;100154.78;5201323;28;20117;-75
2023/03/26 06:11:48;;;;;;;22.15;3.10;;;;;;;7.32;100.00;100151.94;5201211;28;20022;-75
2023/03/26 06:14:21;;;;;;;14.40;3.85;;;;;;;7.31;100.00;100144.94;5197946;28;20060;-75
2023/03/26 06:16:51;;;;;;;13.75;2.90;;;;;;;7.31;100.00;100143.09;5183454;28;20029;-76
2023/03/26 06:19:22;;;;;;;17.17;3.17;;;;;;;7.32;100.00;100135.94;5201214;28;20064;-76
2023/03/26 06:21:52;;;;;;;17.30;3.10;;;;;;;7.31;100.00;100137.78;5188983;28;20065;-75
2023/03/26 06:24:23;;;;;;;15.98;3.17;;;;;;;7.26;100.00;100129.41;5200814;28;20120;-75
2023/03/26 06:26:54;;;;;;;20.35;3.58;;;;;;;7.24;100.00;100131.44;5200817;28;20021;-75
2023/03/26 06:29:24;;;;;;;20.80;2.95;;;;;;;7.23;100.00;100127.09;5201779;28;20115;-76
2023/03/26 06:31:55;;;;;;;18.15;2.97;;;;;;;7.21;100.00;100134.41;5200866;28;20464;-75
2023/03/26 06:34:26;;;;;;;17.73;3.25;;;;;;;7.18;100.00;100129.41;5201426;28;20040;-76
2023/03/26 06:36:57;;;;;;;19.55;2.83;;;;;;;7.16;100.00;100123.38;5200648;28;20386;-75
2023/03/26 06:39:27;;;;;;;14.70;2.85;;;;;;;7.11;100.00;100126.53;5201715;28;20029;-76
2023/03/26 06:41:58;;;;;;;14.85;3.08;;;;;;;7.11;100.00;100120.38;5201263;28;20155;-75
2023/03/26 06:44:28;;;;;;;16.50;2.85;;;;;;;7.07;100.00;100116.34;5201042;28;20021;-75
2023/03/26 06:46:59;;;;;;;13.98;2.30;;;;;;;7.08;100.00;100115.34;5200615;28;20033;-76
2023/03/26 06:49:29;;;;;;;17.77;2.88;;;;;;;7.07;100.00;100111.00;5201197;28;20644;-75
2023/03/26 06:52:01;;;;;;;13.60;2.20;;;;;;;7.04;100.00;100109.53;5201203;28;20037;-76
2023/03/26 06:54:32;;;;;;;23.33;2.85;;;;;;;7.06;100.00;100110.19;5198627;28;20048;-76
2023/03/26 06:57:02;;;;;;;14.60;2.90;;;;;;;7.07;100.00;100103.00;5199991;28;20441;-75
2023/03/26 06:59:33;;;;;;;24.52;2.65;;;;;;;7.09;100.00;100103.69;5201850;28;20029;-75
2023/03/26 07:02:03;;;;;;;17.20;2.15;;;;;;;7.11;100.00;100105.19;5216899;28;20049;-75
2023/03/26 07:04:34;;;;;;;15.63;2.55;;;;;;;7.11;100.00;100105.19;5201385;28;20025;-75
2023/03/26 07:07:05;;;;;;;13.68;3.05;;;;;;;7.13;100.00;100102.34;5200305;28;20036;-75
2023/03/26 07:09:35;;;;;;;15.07;3.42;;;;;;;7.12;100.00;100095.34;5199275;28;20036;-75
2023/03/26 07:12:06;;;;;;;17.23;3.47;;;;;;;7.14;100.00;100096.06;5198695;28;20057;-75
2023/03/26 07:14:37;;;;;;;10.63;2.90;;;;;;;7.12;100.00;100096.19;5199542;28;20030;-75
2023/03/26 07:17:08;;;;;;;17.27;3.03;;;;;;;7.16;100.00;100083.38;5200401;28;20083;-75
2023/03/26 07:19:38;;;;;;;15.70;3.08;;;;;;;7.15;100.00;100093.22;5187810;28;20033;-75
2023/03/26 07:22:17;;;;;;;17.27;2.92;;;;;;;7.17;100.00;100098.38;5186976;28;20552;-75
2023/03/26 07:24:48;;;;;;;17.27;2.90;;;;;;;7.17;100.00;100077.88;5195051;28;20045;-76
2023/03/26 07:27:45;;;;;;;20.40;2.88;;;;;;;7.17;100.00;100077.03;5183868;28;20040;-75
2023/03/26 07:30:46;;;;;;;10.35;2.75;;;;;;;7.14;100.00;100067.53;5193938;28;20112;-75
2023/03/26 07:33:30;;;;;;;19.33;2.83;;;;;;;7.15;100.00;100068.38;5199256;28;20100;-75
2023/03/26 07:36:24;;;;;;;14.35;2.95;;;;;;;7.12;100.00;100066.84;5188125;28;20021;-75
2023/03/26 07:39:32;;;;;;;12.95;2.70;;;;;;;7.12;100.00;100060.69;5203475;28;20048;-75
2023/03/26 07:42:37;;;;;;;17.92;2.38;;;;;;;7.12;100.00;100058.00;5204870;28;20029;-75
2023/03/26 07:45:20;;;;;;;22.42;2.92;;;;;;;7.10;100.00;100060.03;5203916;28;20333;-75
2023/03/26 07:47:52;;;;;;;10.68;2.55;;;;;;;7.09;100.00;100050.38;5196057;28;20030;-75
2023/03/26 07:50:23;;;;;;;12.85;3.00;;;;;;;7.10;100.00;100049.34;5202957;28;20033;-75
2023/03/26 07:52:54;;;;;;;10.70;2.80;;;;;;;7.09;100.00;100045.84;5203950;28;20044;-75
2023/03/26 07:55:25;;;;;;;7.25;2.15;;;;;;;7.07;100.00;100045.16;5203523;28;20044;-75
2023/03/26 07:58:15;;;;;;;11.88;2.60;;;;;;;7.07;100.00;100039.00;5199829;28;20028;-75
2023/03/26 08:00:58;;;;;;;15.02;2.40;;;;;;;7.07;100.00;100041.66;5204032;28;20140;-75
2023/03/26 08:03:56;;;;;;;13.13;3.00;;;;;;;7.10;100.00;100038.69;5203873;28;20022;-75
2023/03/26 08:06:34;;;;;;;16.67;2.53;;;;;;;7.10;100.00;100038.69;5202484;28;20244;-75
2023/03/26 08:09:42;;;;;;;14.27;3.05;;;;;;;7.09;100.00;100037.03;5203774;28;20029;-75
2023/03/26 08:12:29;;;;;;;13.43;3.03;;;;;;;7.09;100.00;100037.84;5200094;28;20066;-75
2023/03/26 08:15:37;;;;;;;16.08;2.83;;;;;;;7.08;100.00;100033.53;5191327;28;20527;-75
2023/03/26 08:18:19;;;;;;;12.25;3.28;;;;;;;7.00;100.00;100026.31;5192882;28;20531;-75
2023/03/26 08:21:08;;;;;;;23.45;4.68;;;;;;;7.04;100.00;100029.50;5202969;28;20084;-75
2023/03/26 08:24:16;;;;;;;9.07;2.13;;;;;;;6.98;100.00;100025.66;5203787;28;20025;-75
2023/03/26 08:27:21;;;;;;;14.32;2.30;;;;;;;6.96;100.00;100022.31;5194293;28;20064;-75
2023/03/26 08:30:28;;;;;;;9.95;2.30;;;;;;;6.95;100.00;100022.47;5194093;28;20389;-75
2023/03/26 08:33:11;;;;;;;14.07;2.78;;;;;;;6.95;100.00;100019.81;5202611;28;20033;-75
2023/03/26 08:35:43;;;;;;;10.23;3.05;;;;;;;6.90;100.00;100024.81;5202677;28;20033;-75
2023/03/26 08:38:17;;;;;;;9.32;2.60;;;;;;;6.91;100.00;100021.13;5202975;28;20116;-75
2023/03/26 08:41:13;;;;;;;17.53;2.67;;;;;;;6.91;100.00;100018.47;5190621;28;20037;-75
2023/03/26 08:44:03;;;;;;;10.13;2.40;;;;;;;6.85;100.00;100014.63;5203427;28;20041;-75
2023/03/26 08:46:49;;;;;;;9.75;2.40;;;;;;;6.84;100.00;100010.28;5201796;28;20108;-75
2023/03/26 08:49:57;;;;;;;11.35;2.17;;;;;;;6.81;100.00;100007.94;5202307;28;20697;-76
2023/03/26 08:52:47;;;;;;;6.35;2.22;;;;;;;6.83;100.00;100010.44;5196358;28;20034;-76
2023/03/26 08:55:36;;;;;;;4.93;1.67;;;;;;;6.74;100.00;100006.94;5202373;28;20029;-75
2023/03/26 08:58:35;;;;;;;7.70;1.83;;;;;;;6.71;100.00;100005.41;5201807;28;20142;-76
2023/03/26 09:01:37;;;;;;;8.43;2.00;;;;;;;6.77;100.00;100011.09;5202576;28;20037;-76
2023/03/26 09:04:38;;;;;;;12.13;2.00;;;;;;;6.73;100.00;99999.94;5202207;28;20026;-76
2023/03/26 09:07:27;;;;;;;8.23;1.80;;;;;;;6.79;100.00;100007.28;5202281;28;20033;-76
2023/03/26 09:10:33;;;;;;;10.82;2.05;;;;;;;6.80;100.00;100008.94;5202525;28;20092;-75
2023/03/26 09:13:27;;;;;;;8.87;1.50;;;;;;;6.82;100.00;100008.78;5198419;28;20049;-75
2023/03/26 09:16:11;;;;;;;5.22;1.90;;;;;;;6.78;100.00;100012.75;5201897;28;20272;-76
2023/03/26 09:19:08;;;;;;;7.82;1.90;;;;;;;6.81;100.00;100010.59;5202026;28;20029;-75
2023/03/26 09:22:10;;;;;;;7.63;1.80;;;;;;;6.75;100.00;100012.09;5192649;28;20022;-76
2023/03/26 09:25:10;;;;;;;5.07;1.40;;;;;;;6.72;100.00;100015.06;5190607;28;20029;-76
2023/03/26 09:28:18;;;;;;;5.72;1.38;;;;;;;6.78;100.00;100008.28;5201506;28;20063;-76
2023/03/26 09:31:23;;;;;;;5.45;1.50;;;;;;;6.83;100.00;100013.97;5201931;28;20416;-76
2023/03/26 09:34:20;;;;;;;8.55;1.80;;;;;;;6.87;100.00;100023.28;5202467;28;20045;-75
2023/03/26 09:37:27;;;;;;;8.20;1.58;;;;;;;6.96;100.00;100021.47;5201612;28;20032;-75
2023/03/26 09:40:17;;;;;;;5.28;1.88;;;;;;;6.96;100.00;100022.31;5201894;28;20034;-75
2023/03/26 09:42:59;;;;;;;6.65;1.63;;;;;;;6.97;100.00;100025.81;5201085;28;20036;-75
2023/03/26 09:45:48;;;;;;;6.20;1.45;;;;;;;6.99;100.00;100021.16;5201493;28;20037;-75
2023/03/26 09:48:29;;;;;;;6.50;1.63;;;;;;;6.96;100.00;100022.31;5201258;28;20041;-76
2023/03/26 09:51:24;;;;;;;10.35;1.58;;;;;;;6.98;100.00;100024.84;5201841;28;20095;-76
2023/03/26 09:54:29;;;;;;;7.93;1.50;;;;;;;6.94;100.00;100026.97;5202341;28;20049;-76
2023/03/26 09:57:34;;;;;;;11.32;2.08;;;;;;;7.05;100.00;100033.00;5200365;28;20033;-76
2023/03/26 10:00:27;;;;;;;9.02;2.15;;;;;;;7.17;100.00;100035.19;5201017;28;20071;-76
2023/03/26 10:03:30;;;;;;;6.15;2.08;;;;;;;7.25;100.00;100037.03;5201451;28;20109;-76
2023/03/26 10:06:37;;;;;;;8.65;2.60;;;;;;;7.37;100.00;100042.88;5200838;28;20033;-75
2023/03/26 10:09:47;;;;;;;11.40;3.15;;;;;;;7.45;100.00;100043.75;5201314;28;20069;-75
2023/03/26 10:12:39;;;;;;;12.60;2.53;;;;;;;7.45;100.00;100041.06;5189159;28;20034;-74
2023/03/26 10:15:31;;;;;;;11.10;2.33;;;;;;;7.48;100.00;100048.75;5189249;28;20496;-75
2023/03/26 10:18:16;;;;;;;10.35;1.80;;;;;;;7.47;100.00;100046.22;5200713;28;20033;-75
2023/03/26 10:21:10;;;;;;;5.22;1.88;;;;;;;7.52;100.00;100044.72;5197690;28;20133;-75
2023/03/26 10:24:18;;;;;;;6.05;2.05;;;;;;;7.59;100.00;100049.44;5195151;28;20037;-75
2023/03/26 10:27:17;;;;;;;7.63;2.05;;;;;;;7.68;100.00;100048.41;5200121;28;20033;-75
2023/03/26 10:30:15;;;;;;;9.40;1.52;;;;;;;7.70;100.00;100057.94;5200902;28;20041;-75
2023/03/26 10:32:57;;;;;;;5.40;1.40;;;;;;;7.81;100.00;100059.44;5189493;28;20097;-75
2023/03/26 10:35:44;;;;;;;4.72;1.42;;;;;;;7.92;100.00;100061.75;5201327;28;20759;-75
2023/03/26 10:38:51;;;;;;;5.70;1.60;;;;;;;7.97;100.00;100066.59;5201280;28;20025;-75
2023/03/26 10:41:40;;;;;;;6.45;1.90;;;;;;;8.07;100.00;100064.56;5201164;28;20051;-75
2023/03/26 10:44:42;;;;;;;8.63;3.17;;;;;;;8.08;100.00;100068.91;5201305;28;20104;-75
2023/03/26 10:47:43;;;;;;;10.60;1.90;;;;;;;8.18;100.00;100072.25;5200917;28;20039;-75
2023/03/26 10:50:40;;;;;;;3.75;1.73;;;;;;;8.22;100.00;100075.41;5200502;28;20033;-82
2023/03/26 10:53:29;;;;;;;7.85;1.85;;;;;;;8.30;100.00;100073.56;5206495;28;20030;-79
2023/03/26 10:56:12;;;;;;;3.00;1.77;;;;;;;8.48;100.00;100081.41;5202238;28;20033;-79
2023/03/26 10:58:43;;;;;;;7.25;2.40;;;;;;;8.57;100.00;100080.38;5188979;28;20146;-85
2023/03/26 11:01:22;;;;;;;5.68;1.85;;;;;;;8.66;100.00;100085.69;5217838;28;20037;-82
2023/03/26 11:03:55;;;;;;;5.70;1.77;;;;;;;8.74;100.00;100083.84;5203192;28;20021;-81
2023/03/26 11:06:29;;;;;;;6.85;2.30;;;;;;;8.82;100.00;100083.78;5200498;28;20026;-84
2023/03/26 11:09:27;;;;;;;2.97;1.98;;;;;;;9.04;100.00;100089.41;5201229;28;20033;-83
2023/03/26 11:12:03;;;;;;;4.72;2.15;;;;;;;9.17;100.00;100095.00;5201055;28;20060;-82
2023/03/26 11:14:45;;;;;;;4.35;2.20;;;;;;;9.35;100.00;100092.06;5199782;28;20041;-84
2023/03/26 11:17:31;;;;;;;5.72;2.10;;;;;;;9.50;100.00;100092.97;5201318;28;20017;-85
2023/03/26 11:20:39;;;;;;;4.45;2.05;;;;;;;9.57;100.00;100101.13;5193299;28;20048;-85
2023/03/26 11:23:25;;;;;;;4.47;1.80;;;;;;;9.57;100.00;100099.28;5196228;28;20100;-76
2023/03/26 11:26:14;;;;;;;6.75;2.17;;;;;;;9.76;100.00;100099.81;5194500;28;20356;-78
2023/03/26 11:28:53;;;;;;;5.53;2.00;;;;;;;9.77;100.00;100098.81;5203401;28;20041;-76
2023/03/26 11:31:56;;;;;;;6.15;1.80;;;;;;;9.83;100.00;100108.78;5203287;28;20095;-76
2023/03/26 11:34:46;;;;;;;7.32;2.00;;;;;;;9.79;100.00;100118.22;5204309;28;20022;-77
2023/03/26 11:37:30;;;;;;;3.83;1.90;;;;;;;9.75;100.00;100122.28;5203949;28;20029;-77
2023/03/26 11:40:10;;;;;;;3.97;1.70;;;;;;;9.73;100.00;100117.06;5205058;28;20025;-76
2023/03/26 11:42:42;;;;;;;4.72;1.95;;;;;;;9.71;100.00;100121.78;5204944;28;20525;-76
2023/03/26 11:45:18;;;;;;;4.03;1.38;;;;;;;9.65;100.00;100127.03;5204306;28;20032;-77
2023/03/26 11:47:53;;;;;;;4.13;1.52;;;;;;;9.72;100.00;100128.78;5203983;28;20021;-77
2023/03/26 11:50:27;;;;;;;4.90;1.48;;;;;;;9.78;100.00;100132.59;5204428;28;20018;-77
2023/03/26 11:53:09;;;;;;;4.35;1.88;;;;;;;9.77;100.00;100129.09;5203771;28;20037;-76
2023/03/26 11:55:59;;;;;;;7.45;1.40;;;;;;;9.75;100.00;100127.63;5204212;28;20116;-76
2023/03/26 11:58:50;;;;;;;3.90;1.83;;;;;;;9.72;100.00;100139.50;5203411;28;20021;-77
2023/03/26 12:04:17;;;;;;;2.78;1.10;;;;;;;9.61;100.00;100139.94;5203971;28;20587;-77
2023/03/26 12:06:55;;;;;;;3.65;1.17;;;;;;;9.58;100.00;100150.97;5203398;28;20033;-77
2023/03/26 12:09:25;;;;;;;3.15;1.35;;;;;;;9.51;100.00;100155.38;5203588;28;20041;-76
2023/03/26 12:12:01;;;;;;;4.38;1.30;;;;;;;9.40;100.00;100155.78;5202622;28;20022;-77
2023/03/26 12:14:33;;;;;;;3.40;1.55;;;;;;;9.36;100.00;100163.31;5202137;28;20033;-77
2023/03/26 12:17:08;;;;;;;2.88;1.40;;;;;;;9.23;100.00;100158.53;5203187;28;20018;-77
2023/03/26 12:19:41;;;;;;;3.30;1.20;;;;;;;9.30;100.00;100158.69;5191135;28;20097;-77